createdAt,value
2018-12-17T00:00:03.238Z,29.80
2018-12-17T00:02:31.475Z,37.28
2018-12-17T00:04:59.814Z,29.25
2018-12-17T00:07:28.175Z,26.02
2018-12-17T00:09:56.439Z,22.73
2018-12-17T00:12:24.643Z,22.98
2018-12-17T00:14:52.836Z,20.92
2018-12-17T00:17:21.097Z,22.30
2018-12-17T00:19:49.575Z,21.57
2018-12-17T00:22:18.034Z,22.60
2018-12-17T00:24:46.335Z,22.20
2018-12-17T00:27:14.606Z,21.15
2018-12-17T00:29:42.790Z,21.12
2018-12-17T00:32:11.013Z,23.32
2018-12-17T00:34:39.268Z,21.95
2018-12-17T00:37:07.631Z,22.02
2018-12-17T00:39:35.820Z,23.02
2018-12-17T00:42:04.117Z,22.40
2018-12-17T00:44:32.322Z,23.35
2018-12-17T00:47:00.562Z,22.55
2018-12-17T00:49:28.771Z,23.25
2018-12-17T00:51:57.063Z,23.85
2018-12-17T00:54:25.267Z,23.40
2018-12-17T00:56:53.463Z,23.55
2018-12-17T00:59:21.693Z,23.18
2018-12-17T01:01:49.887Z,22.50
2018-12-17T01:04:18.130Z,21.45
2018-12-17T01:06:46.385Z,21.68
2018-12-17T01:09:15.208Z,21.80
2018-12-17T01:11:43.675Z,21.75
2018-12-17T01:14:11.956Z,22.65
2018-12-17T01:16:40.197Z,22.20
2018-12-17T01:19:08.521Z,21.87
2018-12-17T01:21:37.099Z,21.45
2018-12-17T01:24:05.426Z,22.67
2018-12-17T01:26:33.676Z,22.10
2018-12-17T01:29:01.931Z,22.48
2018-12-17T01:31:30.154Z,24.43
2018-12-17T01:33:58.398Z,21.42
2018-12-17T01:36:26.652Z,22.58
2018-12-17T01:38:54.914Z,22.40
2018-12-17T01:41:23.136Z,22.20
2018-12-17T01:43:51.367Z,22.60
2018-12-17T01:46:19.547Z,22.15
2018-12-17T01:48:47.863Z,22.30
2018-12-17T01:51:16.385Z,22.32
2018-12-17T01:53:44.608Z,21.02
2018-12-17T01:56:12.822Z,22.30
2018-12-17T01:58:41.150Z,23.50
2018-12-17T02:01:09.474Z,22.52
2018-12-17T02:03:37.760Z,23.50
2018-12-17T02:06:06.132Z,21.65
2018-12-17T02:08:34.485Z,22.05
2018-12-17T02:11:03.249Z,22.60
2018-12-17T02:15:57.599Z,22.27
2018-12-17T02:18:25.855Z,23.38
2018-12-17T02:20:54.172Z,23.87
2018-12-17T02:23:22.466Z,22.30
2018-12-17T02:25:50.723Z,21.90
2018-12-17T02:28:19.001Z,23.10
2018-12-17T02:30:47.295Z,24.18
2018-12-17T02:33:15.505Z,21.82
2018-12-17T02:35:43.859Z,22.07
2018-12-17T02:38:12.139Z,22.25
2018-12-17T02:40:40.435Z,23.20
2018-12-17T02:43:08.900Z,22.62
2018-12-17T02:45:37.286Z,22.98
2018-12-17T02:48:05.577Z,22.93
2018-12-17T02:50:33.790Z,22.80
2018-12-17T02:53:02.032Z,23.35
2018-12-17T02:55:30.300Z,23.27
2018-12-17T02:57:58.515Z,22.35
2018-12-17T03:00:26.780Z,22.70
2018-12-17T03:02:55.046Z,23.10
2018-12-17T03:05:23.270Z,21.87
2018-12-17T03:07:51.584Z,23.30
2018-12-17T03:10:19.748Z,22.37
2018-12-17T03:12:48.234Z,22.65
2018-12-17T03:15:16.510Z,21.85
2018-12-17T03:17:44.746Z,25.02
2018-12-17T03:20:13.065Z,24.25
2018-12-17T03:22:41.431Z,24.00
2018-12-17T03:25:10.042Z,23.12
2018-12-17T03:27:38.318Z,23.20
2018-12-17T03:30:06.974Z,23.55
2018-12-17T03:32:35.346Z,22.95
2018-12-17T03:35:03.881Z,23.40
2018-12-17T03:37:32.212Z,23.05
2018-12-17T03:40:00.427Z,22.48
2018-12-17T03:42:28.645Z,23.50
2018-12-17T03:44:56.860Z,23.30
2018-12-17T03:47:25.113Z,23.57
2018-12-17T03:49:53.367Z,22.82
2018-12-17T03:52:21.611Z,22.15
2018-12-17T03:54:49.781Z,22.22
2018-12-17T03:57:18.076Z,24.07
2018-12-17T03:59:46.407Z,23.15
2018-12-17T04:02:14.645Z,24.35
2018-12-17T04:04:43.458Z,23.98
2018-12-17T04:07:11.771Z,23.55
2018-12-17T04:09:40.248Z,22.37
2018-12-17T04:12:08.491Z,22.58
2018-12-17T04:14:36.732Z,21.68
2018-12-17T04:17:05.038Z,23.65
2018-12-17T04:19:33.280Z,22.98
2018-12-17T04:22:01.519Z,24.15
2018-12-17T04:24:29.851Z,23.80
2018-12-17T04:26:58.183Z,23.15
2018-12-17T04:29:26.733Z,23.30
2018-12-17T04:31:54.938Z,23.70
2018-12-17T04:34:23.222Z,24.12
2018-12-17T04:36:51.573Z,23.02
2018-12-17T04:39:20.285Z,23.10
2018-12-17T04:41:49.000Z,23.80
2018-12-17T04:44:17.265Z,23.38
2018-12-17T04:46:45.604Z,23.20
2018-12-17T04:49:14.083Z,23.22
2018-12-17T04:51:42.369Z,22.52
2018-12-17T04:54:10.935Z,24.37
2018-12-17T04:56:39.317Z,23.75
2018-12-17T04:59:14.352Z,23.02
2018-12-17T05:01:37.934Z,22.98
2018-12-17T05:04:06.127Z,26.15
2018-12-17T05:06:34.473Z,28.75
2018-12-17T05:09:02.952Z,28.27
2018-12-17T05:11:31.142Z,23.02
2018-12-17T05:13:59.357Z,24.72
2018-12-17T05:16:27.652Z,24.52
2018-12-17T05:18:55.954Z,24.43
2018-12-17T05:21:24.150Z,23.47
2018-12-17T05:23:52.517Z,23.60
2018-12-17T05:26:20.792Z,24.77
2018-12-17T05:28:49.166Z,23.45
2018-12-17T05:31:17.737Z,27.85
2018-12-17T05:33:46.240Z,25.20
2018-12-17T05:36:14.454Z,25.85
2018-12-17T05:38:42.738Z,26.35
2018-12-17T05:41:11.054Z,23.32
2018-12-17T05:43:39.308Z,24.00
2018-12-17T05:46:07.597Z,23.12
2018-12-17T05:48:35.852Z,23.95
2018-12-17T05:51:04.243Z,23.90
2018-12-17T05:53:32.608Z,29.52
2018-12-17T05:56:00.883Z,22.95
2018-12-17T05:58:29.204Z,24.40
2018-12-17T06:00:57.421Z,23.85
2018-12-17T06:03:25.750Z,26.23
2018-12-17T06:05:54.044Z,25.25
2018-12-17T06:08:22.307Z,25.10
2018-12-17T06:10:50.589Z,24.60
2018-12-17T06:13:18.950Z,26.87
2018-12-17T06:15:47.340Z,28.27
2018-12-17T06:18:15.595Z,28.75
2018-12-17T06:20:44.335Z,27.20
2018-12-17T06:23:12.690Z,26.05
2018-12-17T06:25:40.972Z,26.25
2018-12-17T06:28:09.433Z,26.23
2018-12-17T06:30:37.827Z,26.68
2018-12-17T06:33:06.100Z,26.25
2018-12-17T06:35:34.407Z,25.08
2018-12-17T06:38:02.644Z,26.73
2018-12-17T06:40:31.018Z,28.17
2018-12-17T06:42:59.307Z,25.02
2018-12-17T06:45:27.624Z,24.90
2018-12-17T06:47:56.271Z,26.45
2018-12-17T06:50:24.803Z,25.92
2018-12-17T06:52:54.539Z,26.62
2018-12-17T06:55:23.083Z,26.85
2018-12-17T06:57:51.941Z,25.55
2018-12-17T07:00:20.420Z,25.70
2018-12-17T07:02:48.703Z,27.85
2018-12-17T07:05:16.980Z,26.57
2018-12-17T07:07:45.559Z,27.25
2018-12-17T07:10:14.034Z,27.75
2018-12-17T07:12:42.486Z,26.52
2018-12-17T07:15:11.107Z,27.05
2018-12-17T07:17:39.478Z,27.45
2018-12-17T07:20:07.950Z,26.12
2018-12-17T07:22:36.361Z,27.37
2018-12-17T07:25:05.646Z,28.35
2018-12-17T07:27:33.918Z,27.32
2018-12-17T07:30:02.605Z,27.58
2018-12-17T07:32:31.085Z,27.32
2018-12-17T07:34:59.387Z,28.73
2018-12-17T07:37:27.841Z,28.52
2018-12-17T07:39:56.338Z,28.00
2018-12-17T07:42:25.830Z,29.45
2018-12-17T07:44:54.360Z,28.85
2018-12-17T07:47:22.697Z,29.72
2018-12-17T07:49:51.151Z,29.12
2018-12-17T07:52:19.480Z,30.72
2018-12-17T07:54:47.839Z,31.75
2018-12-17T07:57:16.308Z,31.80
2018-12-17T07:59:44.634Z,30.27
2018-12-17T08:02:13.287Z,30.37
2018-12-17T08:04:43.969Z,29.63
2018-12-17T08:07:12.587Z,31.02
2018-12-17T08:09:40.949Z,29.77
2018-12-17T08:12:09.554Z,29.70
2018-12-17T08:14:37.805Z,30.15
2018-12-17T08:17:06.230Z,29.15
2018-12-17T08:19:34.591Z,30.37
2018-12-17T08:22:02.864Z,34.27
2018-12-17T08:24:31.286Z,32.00
2018-12-17T08:26:59.906Z,33.60
2018-12-17T08:29:28.292Z,31.87
2018-12-17T08:31:56.648Z,31.95
2018-12-17T08:34:25.111Z,32.73
2018-12-17T08:36:53.436Z,31.82
2018-12-17T08:39:22.845Z,37.48
2018-12-17T08:41:51.497Z,31.20
2018-12-17T08:44:20.022Z,37.05
2018-12-17T08:46:48.417Z,30.75
2018-12-17T08:49:16.772Z,30.55
2018-12-17T08:51:45.261Z,29.75
2018-12-17T08:54:13.747Z,29.48
2018-12-17T08:56:42.119Z,30.17
2018-12-17T08:59:10.594Z,29.82
2018-12-17T09:01:39.081Z,29.40
2018-12-17T09:04:07.456Z,30.20
2018-12-17T09:06:35.926Z,29.32
2018-12-17T09:09:06.163Z,28.20
2018-12-17T09:11:34.646Z,27.50
2018-12-17T09:14:03.045Z,28.65
2018-12-17T09:16:31.640Z,29.37
2018-12-17T09:19:01.869Z,29.20
2018-12-17T09:21:30.723Z,30.72
2018-12-17T09:23:59.296Z,31.60
2018-12-17T09:26:27.706Z,29.63
2018-12-17T09:28:56.190Z,27.25
2018-12-17T09:31:24.852Z,27.20
2018-12-17T09:33:53.136Z,27.87
2018-12-17T09:36:21.573Z,27.13
2018-12-17T09:38:50.016Z,30.10
2018-12-17T09:41:18.374Z,28.77
2018-12-17T09:43:46.635Z,27.37
2018-12-17T09:46:14.885Z,31.12
2018-12-17T09:48:43.128Z,30.82
2018-12-17T09:51:11.457Z,29.55
2018-12-17T09:53:39.843Z,30.10
2018-12-17T09:56:08.338Z,29.10
2018-12-17T09:58:36.671Z,28.90
2018-12-17T10:01:05.070Z,29.55
2018-12-17T10:03:33.378Z,29.87
2018-12-17T10:06:01.853Z,29.48
2018-12-17T10:08:30.234Z,29.07
2018-12-17T10:10:58.708Z,27.95
2018-12-17T10:13:26.943Z,29.10
2018-12-17T10:15:55.231Z,28.45
2018-12-17T10:18:23.739Z,30.08
2018-12-17T10:20:51.956Z,30.02
2018-12-17T10:23:20.180Z,29.65
2018-12-17T10:25:48.424Z,29.30
2018-12-17T10:28:16.666Z,27.32
2018-12-17T10:30:45.052Z,28.20
2018-12-17T10:33:13.341Z,29.42
2018-12-17T10:35:41.564Z,27.93
2018-12-17T10:38:09.853Z,27.98
2018-12-17T10:40:38.727Z,29.27
2018-12-17T10:43:07.123Z,26.93
2018-12-17T10:45:35.719Z,28.73
2018-12-17T10:48:04.052Z,26.68
2018-12-17T10:50:32.473Z,30.12
2018-12-17T10:53:01.132Z,28.07
2018-12-17T10:55:31.370Z,28.30
2018-12-17T10:58:00.091Z,27.45
2018-12-17T11:00:39.372Z,27.60
2018-12-17T11:03:06.756Z,26.42
2018-12-17T11:05:36.795Z,27.52
2018-12-17T11:08:05.262Z,28.80
2018-12-17T11:10:33.641Z,28.47
2018-12-17T11:13:01.951Z,28.40
2018-12-17T11:15:30.198Z,28.92
2018-12-17T11:17:58.529Z,29.52
2018-12-17T11:20:27.168Z,29.35
2018-12-17T11:22:55.909Z,30.68
2018-12-17T11:25:24.431Z,28.60
2018-12-17T11:27:52.997Z,28.65
2018-12-17T11:30:21.353Z,29.63
2018-12-17T11:32:49.675Z,30.05
2018-12-17T11:35:17.982Z,28.73
2018-12-17T11:37:46.823Z,29.45
2018-12-17T11:40:17.230Z,28.67
2018-12-17T11:42:45.983Z,29.48
2018-12-17T11:45:15.341Z,28.80
2018-12-17T11:47:43.636Z,29.87
2018-12-17T11:50:12.132Z,29.70
2018-12-17T11:52:40.598Z,30.62
2018-12-17T11:55:09.262Z,29.30
2018-12-17T11:57:53.413Z,28.73
2018-12-17T12:00:24.042Z,27.73
2018-12-17T12:02:59.113Z,29.87
2018-12-17T12:05:25.947Z,30.32
2018-12-17T12:07:54.506Z,30.32
2018-12-17T12:10:22.998Z,30.68
2018-12-17T12:12:51.227Z,30.43
2018-12-17T12:15:19.659Z,30.57
2018-12-17T12:17:48.125Z,29.80
2018-12-17T12:20:16.595Z,30.00
2018-12-17T12:22:44.929Z,30.35
2018-12-17T12:25:13.304Z,29.95
2018-12-17T12:27:42.050Z,29.05
2018-12-17T12:30:11.513Z,28.83
2018-12-17T12:32:39.741Z,28.65
2018-12-17T12:35:08.917Z,29.82
2018-12-17T12:37:37.330Z,29.10
2018-12-17T12:40:07.956Z,28.83
2018-12-17T12:42:36.442Z,29.60
2018-12-17T12:45:05.321Z,28.15
2018-12-17T12:47:33.695Z,31.00
2018-12-17T12:50:03.714Z,28.17
2018-12-17T12:52:32.205Z,28.35
2018-12-17T12:55:00.472Z,30.45
2018-12-17T12:57:28.981Z,28.80
2018-12-17T12:59:57.408Z,29.45
2018-12-17T13:02:26.020Z,29.52
2018-12-17T13:04:54.681Z,28.73
2018-12-17T13:07:23.395Z,30.52
2018-12-17T13:09:51.801Z,30.55
2018-12-17T13:12:20.349Z,29.42
2018-12-17T13:14:49.096Z,31.45
2018-12-17T13:17:29.018Z,32.13
2018-12-17T13:19:57.487Z,33.38
2018-12-17T13:22:26.129Z,32.35
2018-12-17T13:24:54.534Z,29.98
2018-12-17T13:27:22.916Z,30.27
2018-12-17T13:29:51.399Z,30.00
2018-12-17T13:32:19.771Z,34.03
2018-12-17T13:34:48.155Z,31.40
2018-12-17T13:37:16.798Z,32.98
2018-12-17T13:39:45.224Z,32.08
2018-12-17T13:42:13.585Z,40.73
2018-12-17T13:44:42.081Z,35.23
2018-12-17T13:47:10.669Z,33.63
2018-12-17T13:49:39.042Z,35.65
2018-12-17T13:52:13.049Z,30.52
2018-12-17T13:54:41.484Z,29.50
2018-12-17T13:57:09.912Z,29.20
2018-12-17T13:59:38.214Z,29.92
2018-12-17T14:02:06.720Z,29.87
2018-12-17T14:04:35.253Z,30.48
2018-12-17T14:07:03.906Z,29.72
2018-12-17T14:09:34.284Z,29.37
2018-12-17T14:12:02.714Z,27.90
2018-12-17T14:14:31.177Z,29.23
2018-12-17T14:17:05.443Z,28.35
2018-12-17T14:19:33.921Z,28.77
2018-12-17T14:22:04.570Z,28.62
2018-12-17T14:24:32.890Z,28.95
2018-12-17T14:27:02.075Z,28.55
2018-12-17T14:29:30.523Z,28.92
2018-12-17T14:31:58.716Z,29.10
2018-12-17T14:34:27.367Z,29.07
2018-12-17T14:36:55.950Z,26.30
2018-12-17T14:39:24.329Z,28.05
2018-12-17T14:41:54.044Z,26.85
2018-12-17T14:44:28.908Z,26.23
2018-12-17T14:46:58.512Z,25.95
2018-12-17T14:49:27.012Z,26.40
2018-12-17T14:51:55.783Z,26.75
2018-12-17T14:54:24.494Z,27.60
2018-12-17T14:56:53.061Z,26.30
2018-12-17T14:59:21.512Z,26.52
2018-12-17T15:01:49.992Z,27.80
2018-12-17T15:04:18.536Z,26.60
2018-12-17T15:06:48.787Z,26.07
2018-12-17T15:09:17.601Z,27.17
2018-12-17T15:11:46.268Z,26.60
2018-12-17T15:14:15.159Z,24.87
2018-12-17T15:16:43.639Z,26.55
2018-12-17T15:19:13.843Z,28.23
2018-12-17T15:21:42.420Z,23.98
2018-12-17T15:24:11.025Z,26.57
2018-12-17T15:26:40.243Z,27.95
2018-12-17T15:29:08.681Z,25.75
2018-12-17T15:31:42.996Z,27.62
2018-12-17T15:34:07.357Z,26.00
2018-12-17T15:36:35.705Z,26.07
2018-12-17T15:39:05.117Z,25.90
2018-12-17T15:41:33.324Z,28.47
2018-12-17T15:44:01.727Z,29.60
2018-12-17T15:46:30.165Z,28.27
2018-12-17T15:48:58.436Z,39.15
2018-12-17T15:51:26.694Z,33.73
2018-12-17T15:53:54.976Z,30.17
2018-12-17T15:56:25.144Z,33.02
2018-12-17T15:58:53.363Z,31.25
2018-12-17T16:01:21.644Z,36.75
2018-12-17T16:03:49.934Z,41.55
2018-12-17T16:06:18.285Z,52.43
2018-12-17T16:08:46.884Z,45.25
2018-12-17T16:11:15.118Z,32.95
2018-12-17T16:13:43.323Z,29.77
2018-12-17T16:16:11.548Z,28.17
2018-12-17T16:18:39.737Z,35.78
2018-12-17T16:21:07.979Z,28.70
2018-12-17T16:23:36.339Z,29.07
2018-12-17T16:26:04.679Z,29.57
2018-12-17T16:28:32.979Z,29.80
2018-12-17T16:31:01.202Z,29.52
2018-12-17T16:33:30.039Z,30.20
2018-12-17T16:35:58.597Z,31.75
2018-12-17T16:38:26.805Z,29.07
2018-12-17T16:40:55.018Z,32.78
2018-12-17T16:43:23.346Z,30.08
2018-12-17T16:45:51.671Z,26.80
2018-12-17T16:48:20.002Z,27.42
2018-12-17T16:50:48.227Z,38.85
2018-12-17T16:53:16.576Z,36.08
2018-12-17T16:55:44.798Z,30.43
2018-12-17T16:58:13.101Z,28.57
2018-12-17T17:00:41.322Z,28.45
2018-12-17T17:03:09.559Z,29.52
2018-12-17T17:05:37.855Z,27.52
2018-12-17T17:08:07.261Z,29.42
2018-12-17T17:10:35.475Z,29.42
2018-12-17T17:13:03.638Z,29.95
2018-12-17T17:15:31.910Z,33.80
2018-12-17T17:18:00.264Z,35.55
2018-12-17T17:20:28.523Z,45.40
2018-12-17T17:22:56.821Z,40.85
2018-12-17T17:25:25.292Z,41.25
2018-12-17T17:27:53.669Z,37.17
2018-12-17T17:30:21.923Z,33.90
2018-12-17T17:32:50.309Z,31.27
2018-12-17T17:35:18.603Z,30.10
2018-12-17T17:37:46.855Z,30.52
2018-12-17T17:40:15.079Z,28.42
2018-12-17T17:42:43.272Z,28.62
2018-12-17T17:45:11.516Z,29.27
2018-12-17T17:47:39.755Z,29.15
2018-12-17T17:50:08.076Z,29.42
2018-12-17T17:52:36.449Z,28.47
2018-12-17T17:55:05.112Z,28.20
2018-12-17T17:57:33.509Z,27.35
2018-12-17T18:00:01.683Z,30.15
2018-12-17T18:02:30.063Z,29.77
2018-12-17T18:04:58.896Z,30.23
2018-12-17T18:07:27.155Z,31.73
2018-12-17T18:09:55.815Z,29.70
2018-12-17T18:12:24.213Z,30.57
2018-12-17T18:14:52.566Z,29.70
2018-12-17T18:17:20.847Z,30.57
2018-12-17T18:19:49.089Z,29.20
2018-12-17T18:22:17.329Z,30.40
2018-12-17T18:24:45.542Z,32.98
2018-12-17T18:27:14.210Z,33.58
2018-12-17T18:29:42.414Z,31.48
2018-12-17T18:32:10.810Z,31.42
2018-12-17T18:34:39.087Z,32.85
2018-12-17T18:37:07.467Z,32.70
2018-12-17T18:39:35.802Z,30.97
2018-12-17T18:42:04.192Z,29.63
2018-12-17T18:44:32.480Z,30.30
2018-12-17T18:47:00.677Z,29.90
2018-12-17T18:49:28.963Z,31.50
2018-12-17T18:51:57.184Z,32.17
2018-12-17T18:54:25.607Z,28.92
2018-12-17T18:56:53.893Z,28.30
2018-12-17T18:59:22.119Z,31.05
2018-12-17T19:01:50.504Z,30.27
2018-12-17T19:04:18.821Z,31.10
2018-12-17T19:06:47.206Z,34.05
2018-12-17T19:09:15.797Z,37.23
2018-12-17T19:11:43.982Z,38.08
2018-12-17T19:14:12.229Z,33.13
2018-12-17T19:16:40.484Z,30.77
2018-12-17T19:19:09.301Z,28.23
2018-12-17T19:21:37.581Z,28.80
2018-12-17T19:24:05.834Z,29.45
2018-12-17T19:26:34.085Z,32.50
2018-12-17T19:29:02.332Z,28.95
2018-12-17T19:31:34.543Z,30.25
2018-12-17T19:34:01.022Z,29.75
2018-12-17T19:36:29.307Z,29.90
2018-12-17T19:38:57.660Z,28.90
2018-12-17T19:41:26.038Z,30.82
2018-12-17T19:43:54.294Z,29.07
2018-12-17T19:46:22.729Z,27.42
2018-12-17T19:48:51.076Z,28.70
2018-12-17T19:51:19.361Z,27.52
2018-12-17T19:53:47.641Z,31.45
2018-12-17T19:56:16.005Z,32.28
2018-12-17T19:58:44.404Z,31.52
2018-12-17T20:01:12.647Z,29.45
2018-12-17T20:03:40.909Z,29.32
2018-12-17T20:06:09.651Z,29.65
2018-12-17T20:08:38.011Z,29.30
2018-12-17T20:11:06.389Z,29.98
2018-12-17T20:13:34.599Z,29.55
2018-12-17T20:16:02.824Z,28.75
2018-12-17T20:18:31.091Z,27.85
2018-12-17T20:20:59.495Z,29.95
2018-12-17T20:23:27.859Z,31.65
2018-12-17T20:25:56.074Z,28.55
2018-12-17T20:28:24.285Z,30.50
2018-12-17T20:30:52.507Z,30.55
2018-12-17T20:33:20.783Z,31.42
2018-12-17T20:35:49.051Z,34.25
2018-12-17T20:38:17.258Z,32.15
2018-12-17T20:40:45.744Z,36.50
2018-12-17T20:43:14.049Z,31.65
2018-12-17T20:45:42.264Z,33.70
2018-12-17T20:48:10.507Z,32.85
2018-12-17T20:50:38.903Z,31.05
2018-12-17T20:53:07.108Z,34.95
2018-12-17T20:55:35.483Z,31.37
2018-12-17T20:58:03.717Z,36.03
2018-12-17T21:00:31.994Z,38.53
2018-12-17T21:03:00.665Z,37.20
2018-12-17T21:05:29.061Z,33.23
2018-12-17T21:07:57.477Z,31.12
2018-12-17T21:10:26.291Z,31.55
2018-12-17T21:12:54.953Z,31.75
2018-12-17T21:15:25.132Z,31.55
2018-12-17T21:17:53.369Z,30.55
2018-12-17T21:20:21.721Z,29.63
2018-12-17T21:22:50.000Z,27.98
2018-12-17T21:25:18.188Z,29.80
2018-12-17T21:27:46.459Z,29.82
2018-12-17T21:30:14.698Z,31.17
2018-12-17T21:32:43.105Z,29.82
2018-12-17T21:35:11.480Z,31.10
2018-12-17T21:37:39.715Z,29.45
2018-12-17T21:40:08.023Z,29.60
2018-12-17T21:42:36.288Z,28.47
2018-12-17T21:45:05.870Z,29.40
2018-12-17T21:47:34.223Z,30.08
2018-12-17T21:50:02.698Z,28.07
2018-12-17T21:52:30.934Z,29.95
2018-12-17T21:54:59.134Z,34.05
2018-12-17T21:57:27.378Z,29.98
2018-12-17T21:59:55.570Z,27.67
2018-12-17T22:02:23.956Z,30.77
2018-12-17T22:04:52.146Z,29.55
2018-12-17T22:07:20.352Z,31.42
2018-12-17T22:09:48.670Z,29.72
2018-12-17T22:12:16.966Z,28.98
2018-12-17T22:14:45.192Z,29.50
2018-12-17T22:17:13.423Z,31.07
2018-12-17T22:19:41.689Z,30.12
2018-12-17T22:22:09.897Z,31.35
2018-12-17T22:24:38.120Z,31.75
2018-12-17T22:27:06.315Z,30.45
2018-12-17T22:29:34.541Z,30.80
2018-12-17T22:32:02.769Z,29.02
2018-12-17T22:34:30.978Z,29.00
2018-12-17T22:36:59.324Z,28.67
2018-12-17T22:39:27.761Z,29.07
2018-12-17T22:41:56.384Z,29.45
2018-12-17T22:44:24.693Z,30.97
2018-12-17T22:46:52.906Z,29.55
2018-12-17T22:49:21.119Z,27.55
2018-12-17T22:51:49.322Z,28.52
2018-12-17T22:54:17.641Z,28.10
2018-12-17T22:56:45.861Z,27.67
2018-12-17T22:59:14.145Z,27.75
2018-12-17T23:01:42.454Z,28.25
2018-12-17T23:04:10.652Z,28.83
2018-12-17T23:06:38.954Z,27.27
2018-12-17T23:09:07.301Z,26.00
2018-12-17T23:11:53.529Z,31.87
2018-12-17T23:14:33.821Z,29.85
2018-12-17T23:17:14.143Z,34.13
2018-12-17T23:19:43.638Z,35.15
2018-12-17T23:22:12.011Z,30.17
2018-12-17T23:24:40.305Z,29.60
2018-12-17T23:27:08.643Z,26.65
2018-12-17T23:29:36.934Z,24.72
2018-12-17T23:32:05.328Z,26.42
2018-12-17T23:34:33.849Z,26.17
2018-12-17T23:37:02.176Z,25.05
2018-12-17T23:39:30.582Z,25.20
2018-12-17T23:41:58.865Z,22.15
2018-12-17T23:44:27.129Z,20.37
2018-12-17T23:46:55.707Z,22.13
2018-12-17T23:49:24.164Z,22.77
2018-12-17T23:51:52.392Z,21.40
2018-12-17T23:54:20.611Z,18.82
2018-12-17T23:56:49.322Z,18.35
2018-12-17T23:59:17.573Z,19.10
